sensor_id;sensor_type;location;lat;lon;timestamp;pressure;altitude;pressure_sealevel;temperature;humidity
32642;BME280;19323;56.072;9.698;2023-04-19T00:00:35;102809.06;;;27.49;31.26
32642;BME280;19323;56.072;9.698;2023-04-19T00:03:00;102806.38;;;27.49;31.59
32642;BME280;19323;56.072;9.698;2023-04-19T00:05:26;102809.19;;;27.47;31.49
32642;BME280;19323;56.072;9.698;2023-04-19T00:07:52;102805.75;;;27.45;31.65
32642;BME280;19323;56.072;9.698;2023-04-19T00:10:17;102810.28;;;27.45;31.30
32642;BME280;19323;56.072;9.698;2023-04-19T00:12:42;102804.06;;;27.44;31.37
32642;BME280;19323;56.072;9.698;2023-04-19T00:15:07;102806.03;;;27.42;31.48
32642;BME280;19323;56.072;9.698;2023-04-19T00:17:33;102805.13;;;27.42;31.63
32642;BME280;19323;56.072;9.698;2023-04-19T00:19:58;102806.97;;;27.41;31.78
32642;BME280;19323;56.072;9.698;2023-04-19T00:22:23;102807.09;;;27.40;31.79
32642;BME280;19323;56.072;9.698;2023-04-19T00:24:49;102766.81;;;27.16;31.91
32642;BME280;19323;56.072;9.698;2023-04-19T00:27:14;102801.00;;;27.38;31.64
32642;BME280;19323;56.072;9.698;2023-04-19T00:29:39;102800.88;;;27.39;31.47
32642;BME280;19323;56.072;9.698;2023-04-19T00:32:04;102805.41;;;27.39;31.92
32642;BME280;19323;56.072;9.698;2023-04-19T00:34:30;102801.97;;;27.37;31.45
32642;BME280;19323;56.072;9.698;2023-04-19T00:36:55;102791.22;;;27.37;31.85
32642;BME280;19323;56.072;9.698;2023-04-19T00:39:20;102793.16;;;27.35;31.46
32642;BME280;19323;56.072;9.698;2023-04-19T00:41:45;102793.16;;;27.35;31.57
32642;BME280;19323;56.072;9.698;2023-04-19T00:44:11;102787.88;;;27.33;31.54
32642;BME280;19323;56.072;9.698;2023-04-19T00:46:36;102794.16;;;27.33;31.85
32642;BME280;19323;56.072;9.698;2023-04-19T00:49:01;102789.72;;;27.32;31.52
32642;BME280;19323;56.072;9.698;2023-04-19T00:51:26;102788.88;;;27.32;31.72
32642;BME280;19323;56.072;9.698;2023-04-19T00:53:52;102792.44;;;27.32;31.50
32642;BME280;19323;56.072;9.698;2023-04-19T00:56:17;102790.84;;;27.30;31.90
32642;BME280;19323;56.072;9.698;2023-04-19T00:58:45;102792.53;;;27.31;31.64
32642;BME280;19323;56.072;9.698;2023-04-19T01:01:11;102795.38;;;27.29;31.93
32642;BME280;19323;56.072;9.698;2023-04-19T01:03:36;102757.31;;;27.11;32.00
32642;BME280;19323;56.072;9.698;2023-04-19T01:06:02;102786.56;;;27.27;32.07
32642;BME280;19323;56.072;9.698;2023-04-19T01:08:27;102789.38;;;27.26;31.66
32642;BME280;19323;56.072;9.698;2023-04-19T01:10:52;102784.09;;;27.24;31.77
32642;BME280;19323;56.072;9.698;2023-04-19T01:13:17;102781.41;;;27.24;32.14
32642;BME280;19323;56.072;9.698;2023-04-19T01:15:43;102783.13;;;27.25;31.77
32642;BME280;19323;56.072;9.698;2023-04-19T01:18:08;102790.22;;;27.26;32.17
32642;BME280;19323;56.072;9.698;2023-04-19T01:20:33;102785.09;;;27.23;32.14
32642;BME280;19323;56.072;9.698;2023-04-19T01:22:58;102780.78;;;27.21;31.80
32642;BME280;19323;56.072;9.698;2023-04-19T01:25:23;102787.88;;;27.22;31.81
32642;BME280;19323;56.072;9.698;2023-04-19T01:27:50;102783.41;;;27.22;31.63
32642;BME280;19323;56.072;9.698;2023-04-19T01:30:15;102785.19;;;27.22;32.10
32642;BME280;19323;56.072;9.698;2023-04-19T01:32:40;102786.94;;;27.23;31.69
32642;BME280;19323;56.072;9.698;2023-04-19T01:35:06;102789.63;;;27.23;32.16
32642;BME280;19323;56.072;9.698;2023-04-19T01:37:33;102787.03;;;27.21;31.70
32642;BME280;19323;56.072;9.698;2023-04-19T01:39:59;102788.00;;;27.20;31.85
32642;BME280;19323;56.072;9.698;2023-04-19T01:42:24;102780.91;;;27.19;32.20
32642;BME280;19323;56.072;9.698;2023-04-19T01:44:49;102775.63;;;27.18;31.75
32642;BME280;19323;56.072;9.698;2023-04-19T01:47:14;102776.50;;;27.18;32.18
32642;BME280;19323;56.072;9.698;2023-04-19T01:49:40;102781.00;;;27.18;32.04
32642;BME280;19323;56.072;9.698;2023-04-19T01:52:05;102779.31;;;27.17;32.11
32642;BME280;19323;56.072;9.698;2023-04-19T01:54:30;102775.78;;;27.16;31.72
32642;BME280;19323;56.072;9.698;2023-04-19T01:56:55;102765.00;;;27.16;31.76
32642;BME280;19323;56.072;9.698;2023-04-19T01:59:21;102777.56;;;27.16;31.74
32642;BME280;19323;56.072;9.698;2023-04-19T02:01:46;102766.97;;;27.14;31.74
32642;BME280;19323;56.072;9.698;2023-04-19T02:04:11;102764.28;;;27.14;32.13
32642;BME280;19323;56.072;9.698;2023-04-19T02:06:36;102760.00;;;27.11;31.85
32642;BME280;19323;56.072;9.698;2023-04-19T02:09:01;102771.59;;;27.12;32.15
32642;BME280;19323;56.072;9.698;2023-04-19T02:11:27;102768.91;;;27.12;31.77
32642;BME280;19323;56.072;9.698;2023-04-19T02:13:52;102760.00;;;27.11;31.72
32642;BME280;19323;56.072;9.698;2023-04-19T02:16:17;102766.22;;;27.12;32.04
32642;BME280;19323;56.072;9.698;2023-04-19T02:18:42;102763.66;;;27.10;31.76
32642;BME280;19323;56.072;9.698;2023-04-19T02:21:08;102761.94;;;27.09;32.21
32642;BME280;19323;56.072;9.698;2023-04-19T02:23:33;102760.97;;;27.10;31.69
32642;BME280;19323;56.072;9.698;2023-04-19T02:25:59;102760.09;;;27.10;32.07
32642;BME280;19323;56.072;9.698;2023-04-19T02:28:27;102763.66;;;27.10;32.02
32642;BME280;19323;56.072;9.698;2023-04-19T02:30:52;102762.81;;;27.10;32.05
32642;BME280;19323;56.072;9.698;2023-04-19T02:33:17;102754.72;;;27.10;31.70
32642;BME280;19323;56.072;9.698;2023-04-19T02:35:42;102757.41;;;27.10;31.97
32642;BME280;19323;56.072;9.698;2023-04-19T02:38:07;102749.34;;;27.10;31.98
32642;BME280;19323;56.072;9.698;2023-04-19T02:40:32;102737.59;;;27.00;31.99
32642;BME280;19323;56.072;9.698;2023-04-19T02:42:58;102742.38;;;27.07;31.54
32642;BME280;19323;56.072;9.698;2023-04-19T02:45:23;102743.22;;;27.08;32.10
32642;BME280;19323;56.072;9.698;2023-04-19T02:47:48;102744.19;;;27.07;32.10
32642;BME280;19323;56.072;9.698;2023-04-19T02:50:14;102745.06;;;27.07;31.64
32642;BME280;19323;56.072;9.698;2023-04-19T02:52:40;102741.50;;;27.07;31.85
32642;BME280;19323;56.072;9.698;2023-04-19T02:55:05;102740.66;;;27.06;31.64
32642;BME280;19323;56.072;9.698;2023-04-19T02:57:30;102737.22;;;27.04;31.86
32642;BME280;19323;56.072;9.698;2023-04-19T02:59:55;102742.75;;;27.03;31.65
32642;BME280;19323;56.072;9.698;2023-04-19T03:02:21;102741.75;;;27.04;31.57
32642;BME280;19323;56.072;9.698;2023-04-19T03:04:46;102734.69;;;27.03;31.92
32642;BME280;19323;56.072;9.698;2023-04-19T03:07:12;102740.06;;;27.03;31.95
32642;BME280;19323;56.072;9.698;2023-04-19T03:09:37;102736.50;;;27.02;31.55
32642;BME280;19323;56.072;9.698;2023-04-19T03:12:02;102730.25;;;27.02;31.74
32642;BME280;19323;56.072;9.698;2023-04-19T03:14:28;102728.56;;;27.01;31.49
32642;BME280;19323;56.072;9.698;2023-04-19T03:16:53;102728.56;;;27.01;31.51
32642;BME280;19323;56.072;9.698;2023-04-19T03:19:18;102720.50;;;27.01;31.47
32642;BME280;19323;56.072;9.698;2023-04-19T03:21:43;102716.94;;;27.00;31.87
32642;BME280;19323;56.072;9.698;2023-04-19T03:24:08;102716.94;;;27.00;31.91
32642;BME280;19323;56.072;9.698;2023-04-19T03:26:34;102713.41;;;27.00;31.96
32642;BME280;19323;56.072;9.698;2023-04-19T03:28:59;102713.28;;;27.01;31.91
32642;BME280;19323;56.072;9.698;2023-04-19T03:31:25;102710.72;;;27.00;31.44
32642;BME280;19323;56.072;9.698;2023-04-19T03:33:50;102711.69;;;26.99;31.48
32642;BME280;19323;56.072;9.698;2023-04-19T03:36:15;102713.66;;;26.97;31.48
32642;BME280;19323;56.072;9.698;2023-04-19T03:38:40;102704.84;;;26.95;31.78
32642;BME280;19323;56.072;9.698;2023-04-19T03:41:16;102706.53;;;26.96;32.04
32642;BME280;19323;56.072;9.698;2023-04-19T03:43:42;102711.06;;;26.95;31.70
32642;BME280;19323;56.072;9.698;2023-04-19T03:46:07;102712.91;;;26.95;31.73
32642;BME280;19323;56.072;9.698;2023-04-19T03:48:32;102709.38;;;26.94;31.82
32642;BME280;19323;56.072;9.698;2023-04-19T03:50:59;102706.69;;;26.94;31.85
32642;BME280;19323;56.072;9.698;2023-04-19T03:53:24;102714.88;;;26.92;32.02
32642;BME280;19323;56.072;9.698;2023-04-19T03:55:49;102713.88;;;26.93;31.63
32642;BME280;19323;56.072;9.698;2023-04-19T03:58:15;102706.81;;;26.92;32.02
32642;BME280;19323;56.072;9.698;2023-04-19T04:00:40;102705.94;;;26.92;31.64
32642;BME280;19323;56.072;9.698;2023-04-19T04:03:05;102708.75;;;26.90;31.70
32642;BME280;19323;56.072;9.698;2023-04-19T04:05:30;102701.69;;;26.89;31.77
32642;BME280;19323;56.072;9.698;2023-04-19T04:07:55;102697.16;;;26.90;31.86
32642;BME280;19323;56.072;9.698;2023-04-19T04:10:21;102692.72;;;26.89;31.49
32642;BME280;19323;56.072;9.698;2023-04-19T04:12:46;102698.25;;;26.87;31.68
32642;BME280;19323;56.072;9.698;2023-04-19T04:15:12;102698.25;;;26.87;31.76
32642;BME280;19323;56.072;9.698;2023-04-19T04:17:37;102699.94;;;26.88;32.02
32642;BME280;19323;56.072;9.698;2023-04-19T04:20:02;102710.72;;;26.88;31.65
32642;BME280;19323;56.072;9.698;2023-04-19T04:22:27;102702.75;;;26.87;31.72
32642;BME280;19323;56.072;9.698;2023-04-19T04:24:52;102707.28;;;26.86;31.65
32642;BME280;19323;56.072;9.698;2023-04-19T04:27:18;102698.47;;;26.84;32.17
32642;BME280;19323;56.072;9.698;2023-04-19T04:29:45;102713.66;;;26.85;32.14
32642;BME280;19323;56.072;9.698;2023-04-19T04:32:10;102710.06;;;26.85;32.16
32642;BME280;19323;56.072;9.698;2023-04-19T04:34:38;102700.44;;;26.82;32.20
32642;BME280;19323;56.072;9.698;2023-04-19T04:37:03;102704.97;;;26.82;32.32
32642;BME280;19323;56.072;9.698;2023-04-19T04:39:28;102706.78;;;26.81;31.91
32642;BME280;19323;56.072;9.698;2023-04-19T04:41:54;102710.44;;;26.80;31.95
32642;BME280;19323;56.072;9.698;2023-04-19T04:44:21;102716.81;;;26.79;32.33
32642;BME280;19323;56.072;9.698;2023-04-19T04:46:46;102716.06;;;26.77;32.20
32642;BME280;19323;56.072;9.698;2023-04-19T04:49:12;102714.22;;;26.78;32.20
32642;BME280;19323;56.072;9.698;2023-04-19T04:51:37;102708.00;;;26.77;31.82
32642;BME280;19323;56.072;9.698;2023-04-19T04:54:02;102720.47;;;26.78;31.76
32642;BME280;19323;56.072;9.698;2023-04-19T04:56:29;102716.91;;;26.78;31.84
32642;BME280;19323;56.072;9.698;2023-04-19T04:58:54;102716.06;;;26.77;31.74
32642;BME280;19323;56.072;9.698;2023-04-19T05:01:21;102719.63;;;26.78;32.17
32642;BME280;19323;56.072;9.698;2023-04-19T05:03:47;102715.09;;;26.78;31.81
32642;BME280;19323;56.072;9.698;2023-04-19T05:06:12;102713.38;;;26.77;32.08
32642;BME280;19323;56.072;9.698;2023-04-19T05:08:38;102714.22;;;26.78;31.70
32642;BME280;19323;56.072;9.698;2023-04-19T05:11:03;102721.44;;;26.77;31.94
32642;BME280;19323;56.072;9.698;2023-04-19T05:13:28;102718.75;;;26.77;31.84
32642;BME280;19323;56.072;9.698;2023-04-19T05:15:53;102713.38;;;26.77;32.15
32642;BME280;19323;56.072;9.698;2023-04-19T05:18:18;102710.69;;;26.77;32.28
32642;BME280;19323;56.072;9.698;2023-04-19T05:20:43;102713.38;;;26.77;31.85
32642;BME280;19323;56.072;9.698;2023-04-19T05:23:10;102710.69;;;26.77;32.28
32642;BME280;19323;56.072;9.698;2023-04-19T05:25:36;102710.69;;;26.77;31.82
32642;BME280;19323;56.072;9.698;2023-04-19T05:28:01;102719.50;;;26.79;31.91
32642;BME280;19323;56.072;9.698;2023-04-19T05:30:27;102717.66;;;26.80;31.96
32642;BME280;19323;56.072;9.698;2023-04-19T05:32:52;102714.13;;;26.79;31.75
32642;BME280;19323;56.072;9.698;2023-04-19T05:35:17;102711.44;;;26.79;31.94
32642;BME280;19323;56.072;9.698;2023-04-19T05:37:43;102713.13;;;26.80;32.07
32642;BME280;19323;56.072;9.698;2023-04-19T05:40:09;102717.66;;;26.80;32.04
32642;BME280;19323;56.072;9.698;2023-04-19T05:42:34;102711.44;;;26.79;31.90
32642;BME280;19323;56.072;9.698;2023-04-19T05:44:59;102713.13;;;26.80;31.76
32642;BME280;19323;56.072;9.698;2023-04-19T05:47:24;102707.91;;;26.79;32.22
32642;BME280;19323;56.072;9.698;2023-04-19T05:49:50;102709.72;;;26.78;32.16
32642;BME280;19323;56.072;9.698;2023-04-19T05:52:15;102711.53;;;26.78;32.18
32642;BME280;19323;56.072;9.698;2023-04-19T05:54:40;102708.84;;;26.78;31.98
32642;BME280;19323;56.072;9.698;2023-04-19T05:57:05;102706.16;;;26.78;32.14
32642;BME280;19323;56.072;9.698;2023-04-19T05:59:30;102704.59;;;26.75;32.23
32642;BME280;19323;56.072;9.698;2023-04-19T06:01:56;102706.44;;;26.75;31.82
32642;BME280;19323;56.072;9.698;2023-04-19T06:04:21;102709.84;;;26.77;32.16
32642;BME280;19323;56.072;9.698;2023-04-19T06:06:46;102717.91;;;26.77;32.02
32642;BME280;19323;56.072;9.698;2023-04-19T06:09:11;102708.97;;;26.76;32.22
32642;BME280;19323;56.072;9.698;2023-04-19T06:11:38;102711.66;;;26.76;31.86
32642;BME280;19323;56.072;9.698;2023-04-19T06:14:03;102711.66;;;26.76;31.77
32642;BME280;19323;56.072;9.698;2023-04-19T06:16:29;102715.34;;;26.75;31.84
32642;BME280;19323;56.072;9.698;2023-04-19T06:18:54;102710.91;;;26.74;31.76
32642;BME280;19323;56.072;9.698;2023-04-19T06:21:20;102713.50;;;26.76;31.90
32642;BME280;19323;56.072;9.698;2023-04-19T06:23:45;102709.09;;;26.75;31.69
32642;BME280;19323;56.072;9.698;2023-04-19T06:26:10;102710.91;;;26.74;31.92
32642;BME280;19323;56.072;9.698;2023-04-19T06:28:36;102711.91;;;26.73;31.79
32642;BME280;19323;56.072;9.698;2023-04-19T06:31:01;102709.22;;;26.73;31.78
32642;BME280;19323;56.072;9.698;2023-04-19T06:33:26;102712.75;;;26.74;31.95
32642;BME280;19323;56.072;9.698;2023-04-19T06:35:51;102717.28;;;26.73;31.69
32642;BME280;19323;56.072;9.698;2023-04-19T06:38:16;102714.59;;;26.73;31.88
32642;BME280;19323;56.072;9.698;2023-04-19T06:40:42;102703.59;;;26.65;31.63
32642;BME280;19323;56.072;9.698;2023-04-19T06:43:07;102718.97;;;26.74;31.82
32642;BME280;19323;56.072;9.698;2023-04-19T06:45:32;102720.81;;;26.74;31.92
32642;BME280;19323;56.072;9.698;2023-04-19T06:47:57;102725.34;;;26.73;31.85
32642;BME280;19323;56.072;9.698;2023-04-19T06:50:22;102720.09;;;26.71;32.17
32642;BME280;19323;56.072;9.698;2023-04-19T06:52:48;102721.66;;;26.74;32.03
32642;BME280;19323;56.072;9.698;2023-04-19T06:55:13;102714.50;;;26.75;32.08
32642;BME280;19323;56.072;9.698;2023-04-19T06:57:38;102724.34;;;26.74;32.04
32642;BME280;19323;56.072;9.698;2023-04-19T07:00:03;102728.03;;;26.73;31.75
32642;BME280;19323;56.072;9.698;2023-04-19T07:02:30;102719.88;;;26.75;32.01
32642;BME280;19323;56.072;9.698;2023-04-19T07:04:55;102726.94;;;26.76;31.94
32642;BME280;19323;56.072;9.698;2023-04-19T07:07:20;102725.09;;;26.76;31.96
32642;BME280;19323;56.072;9.698;2023-04-19T07:09:46;102716.19;;;26.76;31.76
32642;BME280;19323;56.072;9.698;2023-04-19T07:12:11;102714.22;;;26.78;31.97
32642;BME280;19323;56.072;9.698;2023-04-19T07:14:36;102722.19;;;26.79;32.14
32642;BME280;19323;56.072;9.698;2023-04-19T07:17:02;102720.34;;;26.80;31.58
32642;BME280;19323;56.072;9.698;2023-04-19T07:19:28;102729.03;;;26.83;31.51
32642;BME280;19323;56.072;9.698;2023-04-19T07:21:53;102715.59;;;26.83;31.95
32642;BME280;19323;56.072;9.698;2023-04-19T07:24:18;102716.34;;;26.85;31.57
32642;BME280;19323;56.072;9.698;2023-04-19T07:26:43;102722.44;;;26.87;31.48
32642;BME280;19323;56.072;9.698;2023-04-19T07:29:08;102713.28;;;26.90;31.42
32642;BME280;19323;56.072;9.698;2023-04-19T07:31:34;102719.50;;;26.90;31.86
32642;BME280;19323;56.072;9.698;2023-04-19T07:33:59;102714.13;;;26.90;31.80
32642;BME280;19323;56.072;9.698;2023-04-19T07:36:24;102719.41;;;26.92;31.70
32642;BME280;19323;56.072;9.698;2023-04-19T07:38:49;102715.72;;;26.93;31.31
32642;BME280;19323;56.072;9.698;2023-04-19T07:41:14;102722.81;;;26.94;31.38
32642;BME280;19323;56.072;9.698;2023-04-19T07:43:40;102718.41;;;26.93;31.47
32642;BME280;19323;56.072;9.698;2023-04-19T07:46:08;102722.81;;;26.94;31.41
32642;BME280;19323;56.072;9.698;2023-04-19T07:48:34;102716.44;;;26.95;31.41
32642;BME280;19323;56.072;9.698;2023-04-19T07:51:09;102724.41;;;26.97;31.34
32642;BME280;19323;56.072;9.698;2023-04-19T07:53:35;102709.97;;;26.98;31.28
32642;BME280;19323;56.072;9.698;2023-04-19T07:56:00;102706.31;;;26.99;31.28
32642;BME280;19323;56.072;9.698;2023-04-19T07:58:25;102707.16;;;26.99;31.52
32642;BME280;19323;56.072;9.698;2023-04-19T08:00:50;102705.31;;;27.00;31.08
32642;BME280;19323;56.072;9.698;2023-04-19T08:03:16;102705.22;;;27.01;31.48
32642;BME280;19323;56.072;9.698;2023-04-19T08:05:41;102708.63;;;27.03;31.03
32642;BME280;19323;56.072;9.698;2023-04-19T08:08:06;102707.66;;;27.04;31.42
32642;BME280;19323;56.072;9.698;2023-04-19T08:10:31;102706.81;;;27.04;31.45
32642;BME280;19323;56.072;9.698;2023-04-19T08:12:56;102707.53;;;27.06;31.05
32642;BME280;19323;56.072;9.698;2023-04-19T08:15:22;102710.97;;;27.08;31.39
32642;BME280;19323;56.072;9.698;2023-04-19T08:17:47;102707.41;;;27.07;31.31
32642;BME280;19323;56.072;9.698;2023-04-19T08:20:12;102712.66;;;27.09;31.20
32642;BME280;19323;56.072;9.698;2023-04-19T08:22:37;102702.63;;;27.11;31.28
32642;BME280;19323;56.072;9.698;2023-04-19T08:25:04;102701.66;;;27.12;31.26
32642;BME280;19323;56.072;9.698;2023-04-19T08:27:29;102703.13;;;27.16;30.97
32642;BME280;19323;56.072;9.698;2023-04-19T08:29:54;102697.50;;;27.19;30.71
32642;BME280;19323;56.072;9.698;2023-04-19T08:32:19;102704.38;;;27.23;30.91
32642;BME280;19323;56.072;9.698;2023-04-19T08:34:44;102701.56;;;27.25;31.00
32642;BME280;19323;56.072;9.698;2023-04-19T08:37:10;102697.78;;;27.27;30.88
32642;BME280;19323;56.072;9.698;2023-04-19T08:39:35;102694.81;;;27.30;30.48
32642;BME280;19323;56.072;9.698;2023-04-19T08:42:04;102690.19;;;27.32;30.87
32642;BME280;19323;56.072;9.698;2023-04-19T08:44:31;102690.91;;;27.35;30.37
32642;BME280;19323;56.072;9.698;2023-04-19T08:46:57;102691.66;;;27.37;30.25
32642;BME280;19323;56.072;9.698;2023-04-19T08:49:22;102702.28;;;27.38;30.36
32642;BME280;19323;56.072;9.698;2023-04-19T08:51:47;102693.22;;;27.39;30.29
32642;BME280;19323;56.072;9.698;2023-04-19T08:54:13;102688.56;;;27.41;30.36
32642;BME280;19323;56.072;9.698;2023-04-19T08:56:39;102685.03;;;27.41;30.31
32642;BME280;19323;56.072;9.698;2023-04-19T08:59:04;102680.28;;;27.44;30.48
32642;BME280;19323;56.072;9.698;2023-04-19T09:01:29;102679.16;;;27.47;30.43
32642;BME280;19323;56.072;9.698;2023-04-19T09:03:55;102675.47;;;27.48;30.40
32642;BME280;19323;56.072;9.698;2023-04-19T09:06:20;102680.75;;;27.49;30.07
32642;BME280;19323;56.072;9.698;2023-04-19T09:08:45;102682.44;;;27.50;30.34
32642;BME280;19323;56.072;9.698;2023-04-19T09:11:10;102676.94;;;27.52;29.99
32642;BME280;19323;56.072;9.698;2023-04-19T09:13:35;102678.66;;;27.53;30.27
32642;BME280;19323;56.072;9.698;2023-04-19T09:16:02;102671.44;;;27.53;30.20
32642;BME280;19323;56.072;9.698;2023-04-19T09:18:28;102673.00;;;27.56;30.06
32642;BME280;19323;56.072;9.698;2023-04-19T09:20:54;102670.22;;;27.58;29.71
32642;BME280;19323;56.072;9.698;2023-04-19T09:23:22;102665.66;;;27.58;29.87
32642;BME280;19323;56.072;9.698;2023-04-19T09:25:50;102666.50;;;27.59;29.90
32642;BME280;19323;56.072;9.698;2023-04-19T09:28:15;102664.56;;;27.61;29.63
32642;BME280;19323;56.072;9.698;2023-04-19T09:30:41;102659.16;;;27.61;29.68
32642;BME280;19323;56.072;9.698;2023-04-19T09:33:06;102654.50;;;27.63;30.05
32642;BME280;19323;56.072;9.698;2023-04-19T09:35:38;102661.75;;;27.62;29.48
32642;BME280;19323;56.072;9.698;2023-04-19T09:38:03;102657.94;;;27.65;29.75
32642;BME280;19323;56.072;9.698;2023-04-19T09:40:29;102653.41;;;27.65;29.39
32642;BME280;19323;56.072;9.698;2023-04-19T09:42:54;102654.25;;;27.66;29.77
32642;BME280;19323;56.072;9.698;2023-04-19T09:45:20;102655.13;;;27.66;29.64
32642;BME280;19323;56.072;9.698;2023-04-19T09:47:45;102645.22;;;27.67;29.13
32642;BME280;19323;56.072;9.698;2023-04-19T09:50:24;102647.91;;;27.67;29.38
32642;BME280;19323;56.072;9.698;2023-04-19T09:52:49;102636.00;;;27.69;29.56
32642;BME280;19323;56.072;9.698;2023-04-19T09:55:16;102633.31;;;27.69;29.61
32642;BME280;19323;56.072;9.698;2023-04-19T09:57:42;102634.16;;;27.70;29.57
32642;BME280;19323;56.072;9.698;2023-04-19T10:00:08;102626.97;;;27.70;29.05
32642;BME280;19323;56.072;9.698;2023-04-19T10:02:37;102630.34;;;27.72;29.38
32642;BME280;19323;56.072;9.698;2023-04-19T10:05:02;102622.16;;;27.74;29.11
32642;BME280;19323;56.072;9.698;2023-04-19T10:07:28;102633.78;;;27.74;29.48
32642;BME280;19323;56.072;9.698;2023-04-19T10:09:55;102630.13;;;27.76;29.10
32642;BME280;19323;56.072;9.698;2023-04-19T10:12:24;102621.94;;;27.77;29.41
32642;BME280;19323;56.072;9.698;2023-04-19T10:14:50;102615.66;;;27.77;29.10
32642;BME280;19323;56.072;9.698;2023-04-19T10:17:15;102617.38;;;27.78;29.07
32642;BME280;19323;56.072;9.698;2023-04-19T10:19:40;102622.78;;;27.78;29.37
32642;BME280;19323;56.072;9.698;2023-04-19T10:22:07;102619.22;;;27.77;29.36
32642;BME280;19323;56.072;9.698;2023-04-19T10:24:32;102611.16;;;27.77;29.04
32642;BME280;19323;56.072;9.698;2023-04-19T10:32:14;102603.81;;;27.79;29.27
32642;BME280;19323;56.072;9.698;2023-04-19T10:34:39;102596.34;;;27.71;29.33
32642;BME280;19323;56.072;9.698;2023-04-19T10:37:04;102575.34;;;27.65;29.09
32642;BME280;19323;56.072;9.698;2023-04-19T10:39:38;102593.88;;;27.80;29.07
32642;BME280;19323;56.072;9.698;2023-04-19T10:42:03;102593.88;;;27.80;28.84
32642;BME280;19323;56.072;9.698;2023-04-19T10:44:28;102583.97;;;27.80;28.91
32642;BME280;19323;56.072;9.698;2023-04-19T10:46:53;102586.53;;;27.82;28.97
32642;BME280;19323;56.072;9.698;2023-04-19T10:49:19;102576.59;;;27.82;29.16
32642;BME280;19323;56.072;9.698;2023-04-19T10:51:48;102580.16;;;27.83;28.96
32642;BME280;19323;56.072;9.698;2023-04-19T10:54:27;102573.91;;;27.82;29.35
32642;BME280;19323;56.072;9.698;2023-04-19T10:56:56;102566.69;;;27.83;28.92
32642;BME280;19323;56.072;9.698;2023-04-19T10:59:22;102560.44;;;27.82;29.44
32642;BME280;19323;56.072;9.698;2023-04-19T11:07:04;102557.63;;;27.84;29.09
32642;BME280;19323;56.072;9.698;2023-04-19T11:11:57;102555.69;;;27.86;29.37
32642;BME280;19323;56.072;9.698;2023-04-19T11:14:22;102544.78;;;27.87;29.56
32642;BME280;19323;56.072;9.698;2023-04-19T11:16:48;102552.00;;;27.87;29.54
32642;BME280;19323;56.072;9.698;2023-04-19T11:19:16;102548.34;;;27.88;29.40
32642;BME280;19323;56.072;9.698;2023-04-19T11:21:41;102547.34;;;27.89;29.17
32642;BME280;19323;56.072;9.698;2023-04-19T11:24:10;102543.66;;;27.90;29.20
32642;BME280;19323;56.072;9.698;2023-04-19T11:26:35;102553.44;;;27.91;29.10
32642;BME280;19323;56.072;9.698;2023-04-19T11:29:00;102542.56;;;27.92;29.04
32642;BME280;19323;56.072;9.698;2023-04-19T11:31:26;102541.69;;;27.92;29.29
32642;BME280;19323;56.072;9.698;2023-04-19T11:33:51;102504.69;;;27.73;29.45
32642;BME280;19323;56.072;9.698;2023-04-19T11:36:17;102537.03;;;27.94;29.19
32642;BME280;19323;56.072;9.698;2023-04-19T11:38:46;102537.03;;;27.94;29.58
32642;BME280;19323;56.072;9.698;2023-04-19T11:41:11;102532.50;;;27.94;29.21
32642;BME280;19323;56.072;9.698;2023-04-19T11:43:36;102525.28;;;27.95;29.53
32642;BME280;19323;56.072;9.698;2023-04-19T11:46:08;102533.34;;;27.95;29.63
32642;BME280;19323;56.072;9.698;2023-04-19T11:48:34;102541.28;;;27.97;29.15
32642;BME280;19323;56.072;9.698;2023-04-19T11:51:00;102528.69;;;27.97;29.27
32642;BME280;19323;56.072;9.698;2023-04-19T11:53:26;102535.78;;;27.98;29.40
32642;BME280;19323;56.072;9.698;2023-04-19T11:55:55;102533.06;;;27.98;29.71
32642;BME280;19323;56.072;9.698;2023-04-19T11:58:25;102527.69;;;27.98;29.36
32642;BME280;19323;56.072;9.698;2023-04-19T12:00:52;102524.03;;;27.99;29.75
32642;BME280;19323;56.072;9.698;2023-04-19T12:03:21;102515.06;;;27.99;29.44
32642;BME280;19323;56.072;9.698;2023-04-19T12:05:56;102511.53;;;27.98;29.94
32642;BME280;19323;56.072;9.698;2023-04-19T12:08:31;102516.91;;;27.98;29.58
32642;BME280;19323;56.072;9.698;2023-04-19T12:10:57;102519.63;;;27.98;30.12
32642;BME280;19323;56.072;9.698;2023-04-19T12:13:26;102520.47;;;27.99;29.75
32642;BME280;19323;56.072;9.698;2023-04-19T12:15:51;102514.22;;;27.98;29.88
32642;BME280;19323;56.072;9.698;2023-04-19T12:18:16;102517.66;;;28.00;29.65
32642;BME280;19323;56.072;9.698;2023-04-19T12:20:45;102505.75;;;28.03;29.20
32642;BME280;19323;56.072;9.698;2023-04-19T12:23:11;102512.84;;;28.04;28.73
32642;BME280;19323;56.072;9.698;2023-04-19T12:25:40;102495.69;;;28.05;28.90
32642;BME280;19323;56.072;9.698;2023-04-19T12:28:05;102504.50;;;28.07;28.84
32642;BME280;19323;56.072;9.698;2023-04-19T12:30:30;102515.16;;;28.08;28.24
32642;BME280;19323;56.072;9.698;2023-04-19T12:32:56;102506.06;;;28.09;28.36
32642;BME280;19323;56.072;9.698;2023-04-19T12:35:22;102504.09;;;28.11;28.26
32642;BME280;19323;56.072;9.698;2023-04-19T12:37:47;102506.53;;;28.14;27.92
32642;BME280;19323;56.072;9.698;2023-04-19T12:40:13;102500.13;;;28.15;27.30
32642;BME280;19323;56.072;9.698;2023-04-19T12:42:39;102500.00;;;28.17;27.37
32642;BME280;19323;56.072;9.698;2023-04-19T12:45:04;102495.34;;;28.19;27.35
32642;BME280;19323;56.072;9.698;2023-04-19T12:47:29;102488.13;;;28.20;27.35
32642;BME280;19323;56.072;9.698;2023-04-19T12:49:55;102487.97;;;28.21;27.18
32642;BME280;19323;56.072;9.698;2023-04-19T12:52:21;102495.91;;;28.23;26.71
32642;BME280;19323;56.072;9.698;2023-04-19T12:54:46;102484.16;;;28.24;26.49